Time;durP1;ratioP1;P1;durP2;ratioP2;P2;SDS_P1;SDS_P2;PMS_P1;PMS_P2;Temp;Humidity;BMP_temperature;BMP_pressure;BME280_temperature;BME280_humidity;BME280_pressure;Samples;Min_cycle;Max_cycle;Signal;HPM_P1;HPM_P2
2023/01/05 00:01:09;;;;;;;;;;;;;;;16.14;nan;100501.91;5012103;28;19956;-34
2023/01/05 00:03:35;;;;;;;;;;;;;;;16.17;nan;100498.66;5014940;28;19922;-34
2023/01/05 00:06:01;;;;;;;;;;;;;;;16.19;nan;100502.66;5010343;28;19929;-35
2023/01/05 00:08:26;;;;;;;;;;;;;;;16.20;nan;100509.69;5017793;28;20381;-34
2023/01/05 00:24:31;;;;;;;;;;;;;;;16.07;nan;100509.56;5011066;28;19924;-34
2023/01/05 00:26:57;;;;;;;;;;;;;;;16.08;nan;100506.59;5018652;28;20660;-34
2023/01/05 00:29:22;;;;;;;;;;;;;;;16.07;nan;100513.09;5012729;28;20398;-34
2023/01/05 00:31:47;;;;;;;;;;;;;;;16.05;nan;100512.56;5018267;28;21910;-34
2023/01/05 00:34:13;;;;;;;;;;;;;;;16.04;nan;100512.88;5017203;28;20027;-34
2023/01/05 00:36:39;;;;;;;;;;;;;;;16.05;nan;100511.78;5012402;28;19921;-34
2023/01/05 00:39:04;;;;;;;;;;;;;;;16.05;nan;100514.47;5010726;28;20307;-34
2023/01/05 00:41:30;;;;;;;;;;;;;;;16.13;nan;100519.22;5018062;28;21243;-34
2023/01/05 00:43:55;;;;;;;;;;;;;;;16.06;nan;100510.69;5019433;28;20483;-35
2023/01/05 00:46:20;;;;;;;;;;;;;;;16.06;nan;100508.78;5015318;28;20454;-34
2023/01/05 00:48:46;;;;;;;;;;;;;;;16.05;nan;100511.78;5013766;28;20057;-34
2023/01/05 00:51:11;;;;;;;;;;;;;;;16.08;nan;100512.00;5009791;28;19917;-34
2023/01/05 00:53:36;;;;;;;;;;;;;;;16.07;nan;100504.16;5017375;28;19917;-34
2023/01/05 00:56:02;;;;;;;;;;;;;;;16.10;nan;100511.69;5010719;28;19922;-34
2023/01/05 00:58:27;;;;;;;;;;;;;;;16.12;nan;100507.59;5010929;28;20398;-34
2023/01/05 01:00:52;;;;;;;;;;;;;;;16.13;nan;100511.91;5010618;28;19921;-34
2023/01/05 01:03:18;;;;;;;;;;;;;;;16.18;nan;100500.25;5020459;28;20362;-34
2023/01/05 01:05:43;;;;;;;;;;;;;;;16.09;nan;100494.69;5021432;28;20651;-35
2023/01/05 01:08:09;;;;;;;;;;;;;;;16.15;nan;100495.41;5014282;28;19924;-34
2023/01/05 01:10:34;;;;;;;;;;;;;;;16.20;nan;100506.97;5014189;28;20249;-34
2023/01/05 01:12:59;;;;;;;;;;;;;;;16.13;nan;100487.59;5018512;28;19929;-35
2023/01/05 01:15:25;;;;;;;;;;;;;;;16.19;nan;100480.22;5021342;28;19921;-35
2023/01/05 01:17:50;;;;;;;;;;;;;;;16.19;nan;100489.16;5018750;28;19925;-34
2023/01/05 01:20:15;;;;;;;;;;;;;;;16.15;nan;100479.19;5017054;28;19921;-34
2023/01/05 01:22:41;;;;;;;;;;;;;;;16.14;nan;100483.78;5019209;28;19948;-34
2023/01/05 01:25:06;;;;;;;;;;;;;;;16.14;nan;100478.38;5014554;28;20268;-34
2023/01/05 01:27:32;;;;;;;;;;;;;;;16.12;nan;100482.47;5022855;28;19920;-34
2023/01/05 01:29:57;;;;;;;;;;;;;;;16.13;nan;100486.78;5024305;28;20298;-34
2023/01/05 01:32:25;;;;;;;;;;;;;;;16.14;nan;100488.41;5017431;28;19917;-34
2023/01/05 01:34:51;;;;;;;;;;;;;;;16.14;nan;100481.09;5019388;28;19921;-34
2023/01/05 01:37:16;;;;;;;;;;;;;;;16.13;nan;100486.78;5023865;28;20401;-34
2023/01/05 01:39:41;;;;;;;;;;;;;;;16.12;nan;100475.16;5023268;28;19921;-34
2023/01/05 01:42:13;;;;;;;;;;;;;;;16.10;nan;100481.97;5016406;28;20038;-34
2023/01/05 01:44:50;;;;;;;;;;;;;;;16.12;nan;100468.97;5017946;28;19921;-34
2023/01/05 01:47:35;;;;;;;;;;;;;;;16.18;nan;100467.81;5022901;28;20151;-34
2023/01/05 01:52:29;;;;;;;;;;;;;;;16.12;nan;100475.16;5063765;28;20371;-32
2023/01/05 01:54:55;;;;;;;;;;;;;;;16.14;nan;100474.88;5063740;28;19928;-32
2023/01/05 01:57:21;;;;;;;;;;;;;;;16.08;nan;100476.06;5061994;28;20005;-32
2023/01/05 01:59:47;;;;;;;;;;;;;;;16.14;nan;100480.28;5062881;28;19923;-32
2023/01/05 02:02:12;;;;;;;;;;;;;;;16.14;nan;100472.19;5064668;28;20377;-33
2023/01/05 02:04:38;;;;;;;;;;;;;;;16.10;nan;100471.16;5053914;28;20278;-33
2023/01/05 02:07:04;;;;;;;;;;;;;;;16.10;nan;100471.16;5060795;28;21232;-33
2023/01/05 02:09:30;;;;;;;;;;;;;;;16.13;nan;100459.75;5064537;28;19917;-33
2023/01/05 02:11:58;;;;;;;;;;;;;;;16.14;nan;100469.47;5067049;28;19920;-33
2023/01/05 02:14:34;;;;;;;;;;;;;;;16.09;nan;100469.56;5056551;28;19925;-32
2023/01/05 02:17:03;;;;;;;;;;;;;;;16.17;nan;100456.19;5063302;28;20491;-33
2023/01/05 02:19:47;;;;;;;;;;;;;;;16.18;nan;100462.41;5058264;28;19921;-32
2023/01/05 02:22:18;;;;;;;;;;;;;;;16.16;nan;100470.00;5064253;28;19928;-33
2023/01/05 02:24:55;;;;;;;;;;;;;;;16.20;nan;100460.22;5066345;28;19920;-33
2023/01/05 02:27:30;;;;;;;;;;;;;;;16.21;nan;100459.13;5058973;28;20296;-32
2023/01/05 02:29:58;;;;;;;;;;;;;;;16.20;nan;100450.22;5059762;28;20386;-33
2023/01/05 02:32:26;;;;;;;;;;;;;;;16.23;nan;100451.50;5059750;28;20286;-33
2023/01/05 02:35:09;;;;;;;;;;;;;;;16.22;nan;100452.63;5060938;28;19931;-32
2023/01/05 02:37:44;;;;;;;;;;;;;;;16.21;nan;100454.50;5060423;28;20270;-32
2023/01/05 02:40:13;;;;;;;;;;;;;;;16.14;nan;100451.34;5058373;28;19998;-32
2023/01/05 02:42:39;;;;;;;;;;;;;;;16.18;nan;100446.19;5066004;28;20050;-32
2023/01/05 02:45:06;;;;;;;;;;;;;;;16.24;nan;100447.72;5064218;28;19924;-33
2023/01/05 02:47:35;;;;;;;;;;;;;;;16.27;nan;100452.53;5065447;28;19917;-33
2023/01/05 02:50:20;;;;;;;;;;;;;;;16.27;nan;100460.66;5059113;28;19927;-33
2023/01/05 02:53:05;;;;;;;;;;;;;;;16.27;nan;100447.94;5055714;28;19923;-33
2023/01/05 02:55:40;;;;;;;;;;;;;;;16.30;nan;100462.75;5057529;28;19921;-33
2023/01/05 02:58:30;;;;;;;;;;;;;;;16.30;nan;100454.66;5062876;28;19999;-32
2023/01/05 03:00:58;;;;;;;;;;;;;;;16.30;nan;100455.44;5052644;28;20388;-33
2023/01/05 03:03:50;;;;;;;;;;;;;;;16.33;nan;100467.56;5064877;28;19935;-33
2023/01/05 03:06:22;;;;;;;;;;;;;;;16.35;nan;100467.31;5053969;28;19931;-33
2023/01/05 03:08:51;;;;;;;;;;;;;;;16.36;nan;100467.00;5064593;28;19916;-33
2023/01/05 03:14:22;;;;;;;;;;;;;;;16.31;nan;100472.47;5062695;28;19927;-32
2023/01/05 03:16:48;;;;;;;;;;;;;;;16.30;nan;100497.91;5058373;28;19916;-32
2023/01/05 03:19:34;;;;;;;;;;;;;;;16.21;nan;100495.06;5059934;28;20011;-32
2023/01/05 03:35:54;;;;;;;;;;;;;;;16.01;nan;100515.06;5058642;28;19944;-32
2023/01/05 03:38:24;;;;;;;;;;;;;;;15.99;nan;100519.16;5057005;28;19956;-32
2023/01/05 03:40:54;;;;;;;;;;;;;;;16.00;nan;100524.25;5063053;28;19962;-32
2023/01/05 03:43:20;;;;;;;;;;;;;;;15.95;nan;100531.59;5063265;28;20395;-32
2023/01/05 03:45:50;;;;;;;;;;;;;;;15.93;nan;100531.91;5060976;28;20007;-32
2023/01/05 03:48:16;;;;;;;;;;;;;;;15.93;nan;100534.59;5058045;28;19920;-32
2023/01/05 03:50:41;;;;;;;;;;;;;;;15.91;nan;100522.47;5059895;28;20382;-33
2023/01/05 03:53:06;;;;;;;;;;;;;;;15.88;nan;100534.66;5065586;28;20010;-32
2023/01/05 03:55:32;;;;;;;;;;;;;;;15.94;nan;100544.31;5059820;28;20003;-32
2023/01/05 03:57:57;;;;;;;;;;;;;;;15.94;nan;100549.72;5057269;28;20300;-32
2023/01/05 04:00:24;;;;;;;;;;;;;;;15.94;nan;100536.19;5060746;28;19920;-32
2023/01/05 04:02:50;;;;;;;;;;;;;;;15.91;nan;100534.09;5057795;28;19977;-32
2023/01/05 04:05:15;;;;;;;;;;;;;;;15.92;nan;100559.19;5061855;28;19924;-32
2023/01/05 04:07:40;;;;;;;;;;;;;;;15.92;nan;100551.91;5058660;28;19928;-32
2023/01/05 04:10:06;;;;;;;;;;;;;;;15.91;nan;100538.69;5057546;28;19931;-32
2023/01/05 04:12:31;;;;;;;;;;;;;;;15.85;nan;100535.25;5060318;28;19970;-32
2023/01/05 04:14:56;;;;;;;;;;;;;;;15.82;nan;100545.81;5059132;28;19932;-32
2023/01/05 04:17:22;;;;;;;;;;;;;;;15.82;nan;100551.22;5063209;28;19928;-32
2023/01/05 04:19:47;;;;;;;;;;;;;;;15.81;nan;100550.44;5054547;28;19917;-32
2023/01/05 04:22:12;;;;;;;;;;;;;;;15.84;nan;100554.44;5058199;28;19925;-32
2023/01/05 04:24:38;;;;;;;;;;;;;;;15.77;nan;100552.06;5059210;28;20412;-33
2023/01/05 04:27:03;;;;;;;;;;;;;;;15.77;nan;100549.38;5061473;28;19920;-32
2023/01/05 04:29:28;;;;;;;;;;;;;;;15.73;nan;100548.34;5061780;28;19943;-32
2023/01/05 04:31:54;;;;;;;;;;;;;;;15.71;nan;100550.53;5057069;28;20336;-32
2023/01/05 04:34:20;;;;;;;;;;;;;;;15.66;nan;100542.50;5060239;28;19982;-32
2023/01/05 04:36:46;;;;;;;;;;;;;;;15.64;nan;100555.47;5056602;28;20002;-32
2023/01/05 04:39:12;;;;;;;;;;;;;;;15.64;nan;100558.19;5064172;28;19986;-32
2023/01/05 04:41:37;;;;;;;;;;;;;;;15.67;nan;100557.59;5059535;28;20378;-32
2023/01/05 04:44:03;;;;;;;;;;;;;;;15.66;nan;100556.78;5055211;28;19924;-32
2023/01/05 04:46:28;;;;;;;;;;;;;;;15.59;nan;100560.91;5059174;28;19920;-32
2023/01/05 04:48:53;;;;;;;;;;;;;;;15.55;nan;100560.66;5058688;28;19924;-32
2023/01/05 04:51:19;;;;;;;;;;;;;;;15.55;nan;100563.34;5062273;28;19959;-32
2023/01/05 04:53:44;;;;;;;;;;;;;;;15.54;nan;100559.03;5054987;28;19959;-32
2023/01/05 04:56:10;;;;;;;;;;;;;;;15.57;nan;100560.34;5056200;28;20003;-32
2023/01/05 04:58:35;;;;;;;;;;;;;;;15.54;nan;100569.03;5055849;28;19921;-32
2023/01/05 05:01:01;;;;;;;;;;;;;;;15.50;nan;100568.81;5060813;28;19920;-32
2023/01/05 05:03:26;;;;;;;;;;;;;;;15.42;nan;100570.22;5060478;28;19994;-32
2023/01/05 05:05:51;;;;;;;;;;;;;;;15.47;nan;100571.28;5057129;28;20302;-32
2023/01/05 05:08:16;;;;;;;;;;;;;;;15.46;nan;100575.06;5058957;28;20297;-32
2023/01/05 05:10:42;;;;;;;;;;;;;;;15.38;nan;100574.56;5055551;28;20298;-32
2023/01/05 05:13:07;;;;;;;;;;;;;;;15.36;nan;100571.34;5061032;28;20015;-32
2023/01/05 05:15:33;;;;;;;;;;;;;;;15.33;nan;100577.31;5064081;28;19974;-32
2023/01/05 05:17:58;;;;;;;;;;;;;;;15.34;nan;100572.75;5058183;28;19920;-32
2023/01/05 05:20:23;;;;;;;;;;;;;;;15.36;nan;100579.47;5060846;28;19921;-32
2023/01/05 05:22:48;;;;;;;;;;;;;;;15.35;nan;100577.03;5062187;28;19920;-32
2023/01/05 05:25:14;;;;;;;;;;;;;;;15.35;nan;100575.16;5064939;28;19924;-32
2023/01/05 05:27:39;;;;;;;;;;;;;;;15.41;nan;100584.00;5057913;28;20084;-32
2023/01/05 05:30:05;;;;;;;;;;;;;;;15.37;nan;100578.38;5056873;28;19924;-32
2023/01/05 05:32:30;;;;;;;;;;;;;;;15.44;nan;100583.47;5058504;28;19917;-32
2023/01/05 05:34:55;;;;;;;;;;;;;;;15.45;nan;100584.25;5059544;28;19986;-32
2023/01/05 05:37:21;;;;;;;;;;;;;;;15.42;nan;100591.81;5063697;28;19923;-32
2023/01/05 05:39:46;;;;;;;;;;;;;;;15.48;nan;100591.78;5054231;28;20007;-32
2023/01/05 05:42:11;;;;;;;;;;;;;;;15.48;nan;100589.88;5055431;28;20019;-32
2023/01/05 05:44:37;;;;;;;;;;;;;;;15.52;nan;100596.31;5056695;28;19963;-32
2023/01/05 05:47:02;;;;;;;;;;;;;;;15.55;nan;100595.75;5063351;28;20355;-32
2023/01/05 05:49:27;;;;;;;;;;;;;;;15.58;nan;100611.38;5061892;28;20011;-32
2023/01/05 05:51:53;;;;;;;;;;;;;;;15.58;nan;100605.19;5061974;28;19998;-32
2023/01/05 05:54:18;;;;;;;;;;;;;;;15.53;nan;100595.22;5058974;28;19927;-32
2023/01/05 05:56:43;;;;;;;;;;;;;;;15.52;nan;100595.53;5061543;28;19916;-32
2023/01/05 05:59:09;;;;;;;;;;;;;;;15.45;nan;100600.47;5066193;28;20026;-33
2023/01/05 06:01:34;;;;;;;;;;;;;;;15.43;nan;100603.41;5062335;28;19952;-32
2023/01/05 06:03:59;;;;;;;;;;;;;;;15.34;nan;100616.72;5062032;28;19982;-32
2023/01/05 06:06:25;;;;;;;;;;;;;;;15.31;nan;100608.41;5067181;28;19943;-32
2023/01/05 06:08:50;;;;;;;;;;;;;;;15.25;nan;100602.22;5060827;28;19916;-32
2023/01/05 06:11:15;;;;;;;;;;;;;;;15.20;nan;100610.34;5061594;28;19994;-32
2023/01/05 06:13:41;;;;;;;;;;;;;;;15.18;nan;100617.94;5057529;28;19952;-32
2023/01/05 06:16:06;;;;;;;;;;;;;;;15.15;nan;100610.41;5060232;28;20027;-32
2023/01/05 06:18:32;;;;;;;;;;;;;;;15.10;nan;100608.56;5057808;28;19917;-32
2023/01/05 06:20:57;;;;;;;;;;;;;;;15.05;nan;100623.97;5062508;28;20342;-32
2023/01/05 06:23:22;;;;;;;;;;;;;;;15.06;nan;100620.19;5065842;28;20427;-32
2023/01/05 06:25:48;;;;;;;;;;;;;;;14.90;nan;100630.28;5059285;28;20340;-32
2023/01/05 06:28:13;;;;;;;;;;;;;;;14.86;nan;100631.09;5060462;28;20357;-32
2023/01/05 06:30:38;;;;;;;;;;;;;;;14.82;nan;100634.38;5063470;28;20274;-32
2023/01/05 06:33:04;;;;;;;;;;;;;;;14.81;nan;100635.44;5063365;28;20549;-32
2023/01/05 06:35:29;;;;;;;;;;;;;;;14.78;nan;100646.81;5060407;28;19931;-32
2023/01/05 06:37:54;;;;;;;;;;;;;;;14.79;nan;100655.69;5061170;28;19925;-32
2023/01/05 06:40:20;;;;;;;;;;;;;;;14.74;nan;100651.16;5060498;28;20386;-32
2023/01/05 06:42:45;;;;;;;;;;;;;;;14.68;nan;100651.44;5063271;28;20385;-32
2023/01/05 06:45:12;;;;;;;;;;;;;;;14.69;nan;100659.25;5062818;28;19916;-32
2023/01/05 06:47:37;;;;;;;;;;;;;;;14.76;nan;100657.06;5058394;28;19959;-32
2023/01/05 06:50:03;;;;;;;;;;;;;;;14.77;nan;100658.66;5062257;28;20504;-33
2023/01/05 06:52:28;;;;;;;;;;;;;;;14.72;nan;100631.75;5059490;28;19921;-33
2023/01/05 06:54:53;;;;;;;;;;;;;;;14.72;nan;100655.19;5062086;28;19931;-32
2023/01/05 06:57:19;;;;;;;;;;;;;;;14.70;nan;100666.25;5061088;28;19916;-32
2023/01/05 06:59:44;;;;;;;;;;;;;;;14.62;nan;100690.28;5057399;28;19973;-32
2023/01/05 07:02:14;;;;;;;;;;;;;;;14.56;nan;100656.34;5061462;28;19917;-32
2023/01/05 07:04:39;;;;;;;;;;;;;;;14.60;nan;100682.47;5060778;28;19921;-32
2023/01/05 07:07:04;;;;;;;;;;;;;;;14.65;nan;100674.38;5062591;28;20673;-32
2023/01/05 07:09:30;;;;;;;;;;;;;;;14.66;nan;100675.97;5059453;28;20355;-32
2023/01/05 07:11:55;;;;;;;;;;;;;;;14.75;nan;100679.72;5058697;28;19928;-32
2023/01/05 07:14:20;;;;;;;;;;;;;;;14.79;nan;100688.88;5060146;28;19927;-33
2023/01/05 07:16:46;;;;;;;;;;;;;;;14.69;nan;100690.78;5055896;28;20436;-32
2023/01/05 07:19:11;;;;;;;;;;;;;;;14.66;nan;100694.03;5054853;28;20378;-32
2023/01/05 07:21:36;;;;;;;;;;;;;;;14.68;nan;100697.28;5055112;28;20673;-33
2023/01/05 07:24:02;;;;;;;;;;;;;;;14.70;nan;100704.00;5060737;28;19923;-33
2023/01/05 07:26:27;;;;;;;;;;;;;;;14.73;nan;100692.69;5063756;28;19917;-33
2023/01/05 07:28:53;;;;;;;;;;;;;;;14.75;nan;100695.09;5053708;28;20004;-32
2023/01/05 07:31:18;;;;;;;;;;;;;;;14.79;nan;100704.25;5059970;28;20006;-33
2023/01/05 07:33:43;;;;;;;;;;;;;;;14.80;nan;100698.56;5053309;28;19948;-32
2023/01/05 07:36:09;;;;;;;;;;;;;;;14.85;nan;100699.63;5061009;28;19925;-33
2023/01/05 07:38:34;;;;;;;;;;;;;;;14.77;nan;100707.22;5055160;28;19962;-32
2023/01/05 07:41:00;;;;;;;;;;;;;;;14.80;nan;100703.97;5052127;28;20370;-33
2023/01/05 07:43:25;;;;;;;;;;;;;;;14.84;nan;100698.81;5057117;28;19923;-32
2023/01/05 07:45:51;;;;;;;;;;;;;;;14.81;nan;100700.19;5056618;28;20471;-33
2023/01/05 07:48:16;;;;;;;;;;;;;;;14.86;nan;100703.94;5056900;28;20326;-32
2023/01/05 07:50:41;;;;;;;;;;;;;;;14.87;nan;100700.16;5073823;22;19908;-35
2023/01/05 07:53:07;;;;;;;;;;;;;;;14.81;nan;100705.56;5063302;28;20315;-36
2023/01/05 07:55:32;;;;;;;;;;;;;;;14.87;nan;100708.25;5059717;28;19920;-35
2023/01/05 07:57:57;;;;;;;;;;;;;;;14.89;nan;100706.88;5058141;28;20099;-35
2023/01/05 08:00:23;;;;;;;;;;;;;;;14.98;nan;100709.81;5064444;28;19921;-35
2023/01/05 08:02:48;;;;;;;;;;;;;;;14.96;nan;100712.78;5045219;28;19947;-35
2023/01/05 08:05:13;;;;;;;;;;;;;;;14.91;nan;100706.63;5048575;28;19917;-36
2023/01/05 08:07:39;;;;;;;;;;;;;;;14.85;nan;100722.00;5045842;28;19963;-35
2023/01/05 08:15:32;;;;;;;;;;;;;;;14.85;nan;100726.59;5046909;28;19927;-35
2023/01/05 08:17:58;;;;;;;;;;;;;;;14.90;nan;100724.72;5046784;28;20370;-35
2023/01/05 08:20:23;;;;;;;;;;;;;;;14.87;nan;100736.03;5046569;28;20262;-35
2023/01/05 08:22:51;;;;;;;;;;;;;;;14.99;nan;100714.94;5046087;28;19971;-35
2023/01/05 08:25:17;;;;;;;;;;;;;;;14.94;nan;100719.56;5049509;28;19959;-35
2023/01/05 08:27:42;;;;;;;;;;;;;;;14.93;nan;100737.63;5046614;28;19952;-35
2023/01/05 08:30:08;;;;;;;;;;;;;;;14.91;nan;100736.31;5050178;28;19921;-35
2023/01/05 08:32:33;;;;;;;;;;;;;;;14.90;nan;100742.75;5046600;28;19921;-35
2023/01/05 08:34:58;;;;;;;;;;;;;;;14.92;nan;100740.59;5046252;28;19924;-35
2023/01/05 08:37:24;;;;;;;;;;;;;;;14.91;nan;100741.69;5048658;28;20007;-35
2023/01/05 08:39:49;;;;;;;;;;;;;;;14.95;nan;100743.56;5044673;28;19962;-35
2023/01/05 08:42:14;;;;;;;;;;;;;;;14.99;nan;100741.09;5047453;28;19923;-35
2023/01/05 08:44:40;;;;;;;;;;;;;;;15.05;nan;100750.78;5048477;28;19917;-35
2023/01/05 08:47:05;;;;;;;;;;;;;;;15.04;nan;100741.88;5047078;28;19924;-36
2023/01/05 08:49:30;;;;;;;;;;;;;;;15.04;nan;100752.66;5046557;28;19921;-36
2023/01/05 08:51:56;;;;;;;;;;;;;;;15.01;nan;100760.50;5045132;28;19921;-35
2023/01/05 08:54:21;;;;;;;;;;;;;;;15.02;nan;100754.03;5047264;28;20374;-35
2023/01/05 08:56:49;;;;;;;;;;;;;;;15.08;nan;100755.63;5043778;28;21257;-36
2023/01/05 08:59:15;;;;;;;;;;;;;;;15.06;nan;100745.09;5049108;28;19971;-35
2023/01/05 09:01:40;;;;;;;;;;;;;;;15.05;nan;100756.19;5045720;28;20157;-34
2023/01/05 09:04:05;;;;;;;;;;;;;;;15.04;nan;100749.97;5046580;28;19924;-35
2023/01/05 09:06:31;;;;;;;;;;;;;;;15.07;nan;100762.09;5045680;28;19920;-35
2023/01/05 09:08:56;;;;;;;;;;;;;;;15.03;nan;100755.66;5048522;28;19983;-35
2023/01/05 09:11:22;;;;;;;;;;;;;;;15.07;nan;100745.91;5047000;28;19916;-35
2023/01/05 09:13:55;;;;;;;;;;;;;;;15.04;nan;100754.56;5045769;28;19917;-35
2023/01/05 09:16:22;;;;;;;;;;;;;;;15.02;nan;100759.44;5047049;28;19921;-35
2023/01/05 09:18:48;;;;;;;;;;;;;;;15.04;nan;100765.34;5044894;28;19917;-35
2023/01/05 09:21:13;;;;;;;;;;;;;;;14.99;nan;100768.09;5046900;28;20301;-35
2023/01/05 09:23:39;;;;;;;;;;;;;;;15.00;nan;100769.69;5048506;28;20449;-35
2023/01/05 09:26:05;;;;;;;;;;;;;;;15.02;nan;100759.44;5049391;28;20004;-35
2023/01/05 09:28:30;;;;;;;;;;;;;;;15.02;nan;100768.34;5049546;28;20416;-35
2023/01/05 09:30:56;;;;;;;;;;;;;;;15.03;nan;100761.03;5049504;28;19924;-35
2023/01/05 09:33:21;;;;;;;;;;;;;;;15.07;nan;100779.09;5050690;28;19920;-35
2023/01/05 09:35:55;;;;;;;;;;;;;;;14.98;nan;100766.47;5048912;28;19924;-36
2023/01/05 09:38:22;;;;;;;;;;;;;;;14.96;nan;100768.66;5046937;28;19927;-35
2023/01/05 09:40:48;;;;;;;;;;;;;;;15.01;nan;100772.13;5048843;28;19920;-35
2023/01/05 09:43:19;;;;;;;;;;;;;;;15.03;nan;100769.13;5049654;28;19952;-35
2023/01/05 09:45:44;;;;;;;;;;;;;;;14.99;nan;100771.59;5051015;28;20313;-36
2023/01/05 09:48:12;;;;;;;;;;;;;;;14.97;nan;100768.38;5051532;28;19926;-35
2023/01/05 09:50:37;;;;;;;;;;;;;;;15.02;nan;100778.31;5049401;28;19916;-36
2023/01/05 09:53:03;;;;;;;;;;;;;;;15.06;nan;100763.19;5049427;28;20283;-35
2023/01/05 09:55:30;;;;;;;;;;;;;;;15.05;nan;100781.25;5049944;28;19959;-35
2023/01/05 09:58:22;;;;;;;;;;;;;;;15.09;nan;100790.44;5047834;28;19929;-35
2023/01/05 10:01:20;;;;;;;;;;;;;;;15.13;nan;100795.28;5045830;28;20030;-35
2023/01/05 10:03:57;;;;;;;;;;;;;;;15.10;nan;100797.44;5025002;28;19932;-36
2023/01/05 10:06:28;;;;;;;;;;;;;;;15.10;nan;100796.66;5045676;28;19924;-35
2023/01/05 10:08:54;;;;;;;;;;;;;;;15.02;nan;100814.19;5051048;28;19928;-35
2023/01/05 10:14:15;;;;;;;;;;;;;;;14.99;nan;100795.06;5050734;28;19959;-35
2023/01/05 10:16:43;;;;;;;;;;;;;;;14.95;nan;100805.59;5048421;28;19916;-35
2023/01/05 10:19:15;;;;;;;;;;;;;;;14.97;nan;100783.75;5050387;28;19974;-35
2023/01/05 10:21:49;;;;;;;;;;;;;;;14.95;nan;100808.31;5048121;28;19963;-35
2023/01/05 10:24:26;;;;;;;;;;;;;;;14.98;nan;100806.94;5053261;28;19917;-35
2023/01/05 10:27:15;;;;;;;;;;;;;;;15.00;nan;100807.47;5047602;28;19917;-35
2023/01/05 10:29:45;;;;;;;;;;;;;;;14.96;nan;100819.91;5041931;28;19921;-35
2023/01/05 10:32:33;;;;;;;;;;;;;;;14.94;nan;100830.16;5047059;28;20393;-35
2023/01/05 10:35:01;;;;;;;;;;;;;;;14.97;nan;100827.72;5045902;28;20390;-35
2023/01/05 10:37:34;;;;;;;;;;;;;;;14.99;nan;100835.53;5047737;28;19923;-35
2023/01/05 10:40:18;;;;;;;;;;;;;;;14.97;nan;100843.09;5049728;28;19921;-34
2023/01/05 10:42:56;;;;;;;;;;;;;;;14.97;nan;100848.50;5048404;28;19923;-35
2023/01/05 10:45:22;;;;;;;;;;;;;;;14.94;nan;100844.47;5045664;28;19920;-35
2023/01/05 10:47:48;;;;;;;;;;;;;;;15.04;nan;100849.00;5047355;28;19924;-35
2023/01/05 10:50:32;;;;;;;;;;;;;;;15.00;nan;100854.16;5050141;28;19921;-35
2023/01/05 10:52:57;;;;;;;;;;;;;;;14.95;nan;100859.56;5048031;28;19921;-35
2023/01/05 10:55:24;;;;;;;;;;;;;;;15.02;nan;100865.47;5052855;28;19927;-35
2023/01/05 10:57:49;;;;;;;;;;;;;;;14.99;nan;100874.13;5047145;28;19921;-35
2023/01/05 11:00:19;;;;;;;;;;;;;;;14.95;nan;100885.75;5048572;28;19928;-35
2023/01/05 11:02:48;;;;;;;;;;;;;;;14.95;nan;100896.53;5053269;28;21313;-35
2023/01/05 11:05:23;;;;;;;;;;;;;;;14.96;nan;100890.06;5050213;28;20413;-35
2023/01/05 11:07:50;;;;;;;;;;;;;;;14.91;nan;100892.78;5047330;28;19927;-35
2023/01/05 11:10:21;;;;;;;;;;;;;;;14.90;nan;100899.22;5046783;28;19917;-35
2023/01/05 11:12:53;;;;;;;;;;;;;;;14.98;nan;100907.56;5046681;28;19925;-35
2023/01/05 11:15:19;;;;;;;;;;;;;;;14.95;nan;100926.22;5047636;28;20267;-35
2023/01/05 11:17:45;;;;;;;;;;;;;;;14.94;nan;100928.09;5048935;28;19982;-35
2023/01/05 11:20:14;;;;;;;;;;;;;;;15.03;nan;100933.72;5050185;28;20325;-35
2023/01/05 11:22:42;;;;;;;;;;;;;;;14.93;nan;100939.16;5045828;28;20366;-35
2023/01/05 11:25:26;;;;;;;;;;;;;;;14.91;nan;100944.84;5046455;28;20305;-35
2023/01/05 11:28:07;;;;;;;;;;;;;;;14.88;nan;100968.81;5048587;28;19924;-35
2023/01/05 11:30:32;;;;;;;;;;;;;;;14.82;nan;100984.22;5047831;28;19995;-35
2023/01/05 11:33:00;;;;;;;;;;;;;;;14.76;nan;100994.19;5050177;28;19936;-35
2023/01/05 11:35:38;;;;;;;;;;;;;;;14.74;nan;100995.56;5049019;28;19921;-35
2023/01/05 11:38:03;;;;;;;;;;;;;;;14.70;nan;101008.75;5048373;28;19916;-35
2023/01/05 11:40:33;;;;;;;;;;;;;;;14.65;nan;101013.34;5050019;28;19923;-35
2023/01/05 11:42:59;;;;;;;;;;;;;;;14.66;nan;101034.63;5046416;28;19927;-35
2023/01/05 11:45:27;;;;;;;;;;;;;;;14.66;nan;101050.00;5047709;28;19916;-35
2023/01/05 11:47:57;;;;;;;;;;;;;;;14.64;nan;101042.19;5045903;28;19916;-34
2023/01/05 11:50:24;;;;;;;;;;;;;;;14.54;nan;101066.44;5047154;28;19916;-35
2023/01/05 11:52:50;;;;;;;;;;;;;;;14.47;nan;101076.66;5045310;28;19932;-34
2023/01/05 11:55:19;;;;;;;;;;;;;;;14.41;nan;101088.50;5047981;28;19920;-35
2023/01/05 11:57:45;;;;;;;;;;;;;;;14.42;nan;101099.00;5047138;28;19921;-35
2023/01/05 12:00:23;;;;;;;;;;;;;;;14.39;nan;101101.44;5048971;28;19920;-35
2023/01/05 12:02:57;;;;;;;;;;;;;;;14.29;nan;101122.94;5045985;28;19932;-35
2023/01/05 12:05:27;;;;;;;;;;;;;;;14.24;nan;101131.81;5044054;28;19924;-35
2023/01/05 12:07:57;;;;;;;;;;;;;;;14.12;nan;101125.81;5046458;28;19936;-35
2023/01/05 12:10:34;;;;;;;;;;;;;;;13.98;nan;101138.94;5041588;28;20136;-34
2023/01/05 12:13:05;;;;;;;;;;;;;;;13.93;nan;101144.31;5045684;28;19927;-35
2023/01/05 12:15:53;;;;;;;;;;;;;;;13.87;nan;101153.44;5040744;28;20071;-35
2023/01/05 12:18:37;;;;;;;;;;;;;;;13.80;nan;101156.34;5033331;28;20401;-34
2023/01/05 12:21:02;;;;;;;;;;;;;;;13.69;nan;101161.94;5043196;28;19920;-34
2023/01/05 12:23:38;;;;;;;;;;;;;;;13.65;nan;101158.97;5041225;28;20454;-34
2023/01/05 12:26:12;;;;;;;;;;;;;;;13.53;nan;101172.59;5046288;28;19974;-34
2023/01/05 12:28:43;;;;;;;;;;;;;;;13.52;nan;101156.69;5044236;28;20008;-35
2023/01/05 12:31:19;;;;;;;;;;;;;;;13.54;nan;101166.13;5041913;28;19917;-34
2023/01/05 12:33:50;;;;;;;;;;;;;;;13.56;nan;101185.53;5039136;28;19932;-34
2023/01/05 12:36:15;;;;;;;;;;;;;;;13.50;nan;101191.94;5042271;28;19920;-35
2023/01/05 12:38:46;;;;;;;;;;;;;;;13.52;nan;101187.13;5037864;28;19928;-34
2023/01/05 12:41:30;;;;;;;;;;;;;;;13.50;nan;101202.72;5034046;28;19931;-34
2023/01/05 12:44:23;;;;;;;;;;;;;;;13.48;nan;101204.06;5043498;28;20294;-35
2023/01/05 12:47:04;;;;;;;;;;;;;;;13.47;nan;101197.84;5040226;28;19921;-35
2023/01/05 12:49:32;;;;;;;;;;;;;;;13.44;nan;101209.09;5035339;28;20427;-35
2023/01/05 12:52:04;;;;;;;;;;;;;;;13.49;nan;101217.25;5040635;28;20162;-34
2023/01/05 12:54:37;;;;;;;;;;;;;;;13.54;nan;101219.16;5040892;28;20002;-34
2023/01/05 12:57:06;;;;;;;;;;;;;;;13.53;nan;101226.44;5037267;28;20294;-34
2023/01/05 12:59:51;;;;;;;;;;;;;;;13.54;nan;101238.81;5047874;28;19925;-35
2023/01/05 13:02:21;;;;;;;;;;;;;;;13.55;nan;101237.75;5043073;28;20390;-34
2023/01/05 13:04:50;;;;;;;;;;;;;;;13.49;nan;101248.75;5046076;28;19921;-35
2023/01/05 13:07:19;;;;;;;;;;;;;;;13.42;nan;101248.94;5043685;28;19920;-34
2023/01/05 13:09:46;;;;;;;;;;;;;;;13.36;nan;101255.34;5039393;28;20071;-34
2023/01/05 13:12:12;;;;;;;;;;;;;;;13.37;nan;101258.84;5048579;28;19971;-34
2023/01/05 13:14:51;;;;;;;;;;;;;;;13.35;nan;101266.34;5046521;28;19931;-35
2023/01/05 13:17:25;;;;;;;;;;;;;;;13.27;nan;101262.22;5042009;28;19924;-35
2023/01/05 13:19:55;;;;;;;;;;;;;;;13.26;nan;101274.06;5044463;28;20171;-34
2023/01/05 13:22:22;;;;;;;;;;;;;;;13.20;nan;101269.69;5043790;28;20012;-34
2023/01/05 13:25:07;;;;;;;;;;;;;;;13.24;nan;101285.06;5045080;28;19931;-34
2023/01/05 13:27:33;;;;;;;;;;;;;;;13.16;nan;101293.59;5044650;28;20398;-34
2023/01/05 13:29:59;;;;;;;;;;;;;;;13.12;nan;101292.47;5044506;28;19921;-35
2023/01/05 13:32:25;;;;;;;;;;;;;;;12.96;nan;101299.53;5041991;28;19927;-35
2023/01/05 13:34:50;;;;;;;;;;;;;;;12.90;nan;101300.50;5046200;28;20005;-33
2023/01/05 13:37:22;;;;;;;;;;;;;;;12.95;nan;101314.06;5041762;28;19963;-35
2023/01/05 13:39:56;;;;;;;;;;;;;;;13.00;nan;101319.47;5042864;28;20015;-34
2023/01/05 13:42:33;;;;;;;;;;;;;;;12.96;nan;101321.06;5041647;28;20386;-35
2023/01/05 13:45:08;;;;;;;;;;;;;;;13.01;nan;101318.41;5050603;28;19927;-35